• Join FlightAware (Why Join?)
  • Login
  • US Flag 
01:17PM EDT


 

Airport Tracker/Info


-or-


 

Live Flight TrackerFlight Track Log ✈ N552SC ✈ 17-Jul-2013 ✈ KHOU - KMIA

Flight Track Log - Related Links

Times and Time Zones

All times are in EDT time to prevent confusion due to time zone crossing. See the N552SC flight status page for this flight to view local times or setup timezone preferences in your user account.

Time Position Orientation Groundspeed Altitude Reporting Facility
EDT Latitude Longitude Course Direction KTS MPH feet Rate Location/Type
02:59PM 29.6333 -95.2678 144° Southeast 162 186 600  Level Houston Center
03:00PM 29.5811 -95.2236 144° Southeast 216 249 3,900 2,040 Climbing Houston Center
03:01PM 29.5378 -95.1664 131° Southeast 268 308 5,000 780 Climbing Houston Center
03:02PM 29.5775 -95.0967 57° Northeast 271 312 5,600 1,680 Climbing Houston Center
03:03PM 29.6472 -95.0328 39° Northeast 280 322 8,600 2,340 Climbing Houston Center
03:05PM 29.6597 -94.9347 82° East 278 320 11,200 1,980 Climbing Houston Center
03:06PM 29.6675 -94.8450 84° East 279 321 13,200 1,920 Climbing Houston Center
03:07PM 29.6775 -94.7533 83° East 288 331 15,300 2,040 Climbing Houston Center
03:08PM 29.6906 -94.6389 82° East 299 344 17,500 1,680 Climbing Houston Center
03:09PM 29.7003 -94.5383 84° East 311 358 18,800 1,320 Climbing Houston Center
03:10PM 29.7114 -94.4356 83° East 322 371 20,300 1,440 Climbing Houston Center
03:11PM 29.7208 -94.3300 84° East 330 380 21,800 1,320 Climbing Houston Center
03:12PM 29.7069 -94.2219 98° East 339 390 23,100 1,200 Climbing Houston Center
03:13PM 29.6933 -94.0936 97° East 344 396 24,300 1,020 Climbing Houston Center
03:14PM 29.6831 -93.9797 96° East 355 409 25,300 960 Climbing Houston Center
03:15PM 29.6853 -93.8633 89° East 363 418 26,300 960 Climbing Houston Center
03:16PM 29.6833 -93.7464 91° East 368 423 27,300 960 Climbing Houston Center
03:17PM 29.6825 -93.6281 90° East 372 428 28,300 1,080 Climbing Houston Center
03:18PM 29.6792 -93.4817 91° East 382 440 29,600 1,140 Climbing Houston Center
03:19PM 29.6783 -93.3611 90° East 381 438 30,700 960 Climbing Houston Center
03:20PM 29.6769 -93.2389 91° East 384 442 31,700 960 Climbing Houston Center
03:21PM 29.6753 -93.1142 91° East 390 449 32,800 1,140 Climbing Houston Center
03:22PM 29.6525 -92.9931 102° East 391 450 34,100 1,500 Climbing Houston Center
03:23PM 29.6197 -92.8503 105° East 386 444 35,900 1,320 Climbing Houston Center
03:24PM 29.5714 -92.7408 117° Southeast 384 442 36,900 480 Climbing Houston Center
03:25PM 29.5156 -92.6314 120° Southeast 398 458 37,000  Climbing Houston Center
03:27PM 29.4517 -92.5169 123° Southeast 419 482 37,000  Level Houston Center
03:28PM 29.3833 -92.4003 124° Southeast 436 502 37,000 240 Level Houston Center
03:29PM 29.3150 -92.2831 124° Southeast 442 509 37,500 780 Climbing Houston Center
03:30PM 29.2344 -92.1469 124° Southeast 433 498 38,700 960 Climbing Houston Center
03:31PM 29.1686 -92.0347 124° Southeast 424 488 39,600 900 Climbing Houston Center
03:32PM 29.1042 -91.9244 124° Southeast 418 481 40,600 660 Climbing Houston Center
03:33PM 29.0406 -91.8169 124° Southeast 411 473 41,000 180 Climbing Houston Center
03:34PM 28.9736 -91.7050 124° Southeast 428 493 41,000  Level Houston Center
03:35PM 28.8897 -91.5656 124° Southeast 444 511 41,000  Level Houston Center
03:36PM 28.8194 -91.4478 124° Southeast 448 516 41,000  Level Houston Center
03:37PM 28.7636 -91.3236 117° Southeast 445 512 41,000  Level Houston Center
03:38PM 28.7453 -91.1919 99° East 427 491 41,000  Level Houston Center
03:39PM 28.7319 -91.0556 96° East 431 496 41,000  Level Houston Center
03:40PM 28.7150 -90.8942 97° East 429 494 41,000  Level Houston Center
03:41PM 28.7008 -90.7597 97° East 429 494 41,000  Level Houston Center
03:42PM 28.6842 -90.6256 98° East 429 494 41,000  Level Houston Center
03:43PM 28.6625 -90.4931 101° East 430 495 41,000  Level Houston Center
03:44PM 28.6408 -90.3600 100° East 429 494 41,000  Level Houston Center
03:45PM 28.6147 -90.2014 101° East 427 491 41,000  Level Houston Center
03:46PM 28.5933 -90.0692 100° East 427 491 41,000  Level Houston Center
03:47PM 28.5714 -89.9361 101° East 429 494 41,000  Level Houston Center
03:48PM 28.5489 -89.8008 101° East 438 504 41,000  Level Houston Center
03:49PM 28.5278 -89.6692 100° East 429 494 41,000  Level Houston Center
03:50PM 28.5008 -89.5131 101° East 424 488 41,000  Level Houston Center
03:51PM 28.4831 -89.3783 99° East 437 503 41,000  Level Houston Center
03:52PM 28.4819 -89.2450 91° East 428 493 41,000  Level Houston Center
03:53PM 28.4808 -89.1133 91° East 421 484 41,000  Level Houston Center
03:54PM 28.4806 -88.9792 90° East 427 491 41,000  Level Houston Center
03:56PM 28.4806 -88.8458 90° East 425 489 41,000  Level Houston Center
03:57PM 28.4800 -88.6864 90° East 422 486 41,000  Level Houston Center
03:58PM 28.4803 -88.5525 90° East 426 490 41,000  Level Houston Center
03:59PM 28.4719 -88.4197 94° East 426 490 41,000  Level Houston Center
04:00PM 28.4628 -88.2878 94° East 423 487 41,000  Level Houston Center
04:01PM 28.4458 -88.1533 98° East 431 496 41,000  Level Houston Center
04:02PM 28.4214 -88.0014 100° East 426 490 41,000  Level Houston Center
04:03PM 28.3975 -87.8706 102° East 427 491 41,000  Level Houston Center
04:04PM 28.3517 -87.7458 113° Southeast 429 494 41,000  Level Houston Center
04:05PM 28.3092 -87.6197 111° Southeast 430 495 41,000  Level Houston Center
04:06PM 28.2564 -87.4683 112° Southeast 430 495 41,000  Level Houston Center
04:07PM 28.2136 -87.3411 111° Southeast 434 499 41,000  Level Houston Center
04:08PM 28.1694 -87.2144 112° Southeast 433 498 41,000  Level Houston Center
04:09PM 28.1267 -87.0875 111° Southeast 433 498 41,000  Level Houston Center
04:10PM 28.0908 -86.9906 113° Southeast 425 489 41,000  Level Jacksonville Center
04:11PM 28.0469 -86.8664 112° Southeast 425 489 41,000  Level Jacksonville Center
04:12PM 28.0031 -86.7331 110° East 429 494 41,000  Level Jacksonville Center
04:13PM 27.9586 -86.6069 112° Southeast 421 484 41,000  Level Jacksonville Center
04:14PM 27.9142 -86.4833 112° Southeast 437 503 41,000  Level Jacksonville Center
04:15PM 27.8675 -86.3572 113° Southeast 431 496 41,000  Level Jacksonville Center
04:16PM 27.8250 -86.2336 111° Southeast 428 493 41,000  Level Jacksonville Center
04:17PM 27.7803 -86.1056 112° Southeast 433 498 41,000  Level Jacksonville Center
04:18PM 27.7353 -85.9822 112° Southeast 423 487 41,000  Level Jacksonville Center
04:19PM 27.6922 -85.8569 111° Southeast 423 487 41,000  Level Jacksonville Center
04:20PM 27.6450 -85.7314 113° Southeast 418 481 41,000  Level Jacksonville Center
04:21PM 27.6039 -85.6108 111° Southeast 418 481 41,000  Level Jacksonville Center
04:22PM 27.5361 -85.4311 113° Southeast 423 487 41,000  Level Miami Center
04:23PM 27.4892 -85.3083 113° Southeast 423 487 41,000  Level Miami Center
04:24PM 27.4422 -85.1858 113° Southeast 423 487 41,000  Level Miami Center
04:25PM 27.4094 -85.0667 107° East 423 487 41,000  Level Miami Center
04:26PM 27.3581 -84.9439 115° Southeast 423 487 41,000  Level Miami Center
04:27PM 27.3106 -84.8217 114° Southeast 428 493 41,000  Level Miami Center
04:28PM 27.2692 -84.6997 111° Southeast 423 487 41,000  Level Miami Center
04:29PM 27.2217 -84.5753 113° Southeast 428 493 41,000  Level Miami Center
04:30PM 27.1761 -84.4533 113° Southeast 428 493 41,000  Level Miami Center
04:31PM 27.1325 -84.3317 112° Southeast 428 493 41,000  Level Miami Center
04:32PM 27.0867 -84.2100 113° Southeast 428 493 41,000  Level Miami Center
04:33PM 27.0406 -84.0858 113° Southeast 428 493 41,000  Level Miami Center
04:34PM 26.9947 -83.9619 113° Southeast 428 493 41,000  Level Miami Center
04:35PM 26.9419 -83.8447 117° Southeast 428 493 41,000  Level Miami Center
04:36PM 26.8611 -83.7444 132° Southeast 428 493 41,000  Level Miami Center
04:37PM 26.7844 -83.6472 131° Southeast 423 487 41,000  Level Miami Center
04:38PM 26.7036 -83.5447 131° Southeast 423 487 41,000  Level Miami Center
04:39PM 26.6250 -83.4428 131° Southeast 434 499 41,000  Level Miami Center
04:40PM 26.5481 -83.3433 131° Southeast 434 499 41,000  Level Miami Center
04:41PM 26.4692 -83.2394 130° Southeast 434 499 41,000  Level Miami Center
04:42PM 26.3903 -83.1356 130° Southeast 434 499 41,000  Level Miami Center
04:43PM 26.3150 -83.0367 130° Southeast 427 491 41,000  Level Miami Center
04:44PM 26.2383 -82.9286 128° Southeast 427 491 41,000 -120 Level Miami Center
04:45PM 26.1633 -82.8231 128° Southeast 427 491 40,800 -600 Descending Miami Center
04:46PM 26.1117 -82.7069 116° Southeast 426 490 39,900 -1,200 Descending Miami Center
04:47PM 26.0814 -82.5739 104° East 426 490 38,400 -960 Descending Miami Center
04:48PM 26.0711 -82.4600 96° East 417 480 38,000 -1,260 Descending Miami Center
04:49PM 26.0425 -82.3364 104° East 417 480 35,900 -2,340 Descending Miami Center
04:50PM 26.0308 -82.2042 96° East 422 486 33,400 -2,640 Descending Miami Center
04:51PM 26.0189 -82.0672 96° East 427 491 30,700 -2,700 Descending Miami Center
04:52PM 26.0008 -81.9303 98° East 433 498 28,000 -2,640 Descending Miami Center
04:53PM 25.9864 -81.8025 97° East 433 498 25,500 -2,460 Descending Miami Center
04:54PM 26.0008 -81.6831 82° East 418 481 23,100 -1,920 Descending Miami Center
04:55PM 26.0944 -81.6311 26° Northeast 323 372 21,700 -1,380 Descending Miami Center
04:56PM 26.1231 -81.5189 74° East 352 405 20,400 -1,740 Descending Miami Center
04:57PM 26.0869 -81.4089 110° East 339 390 18,300 -2,100 Descending Miami Center
04:58PM 26.0378 -81.3031 117° Southeast 339 390 16,200 -2,040 Descending Miami Center
04:59PM 25.9989 -81.2114 115° Southeast 339 390 14,300 -1,740 Descending Miami Center
05:00PM 25.9697 -81.1411 115° Southeast 331 381 12,800 -1,860 Descending Miami Center
05:01PM 25.9319 -81.0728 122° Southeast 312 359 11,300 -2,040 Descending Miami Center
05:02PM 25.9086 -81.0142 114° Southeast 305 351 10,100 -1,020 Descending Miami Center
05:02PM 25.8931 -80.9675 110° East 300 345 9,900 -300 Descending Miami Center
05:03PM 25.8719 -80.9022 110° East 261 300 9,600 -540 Descending Miami Center
05:04PM 25.8569 -80.8394 105° East 226 260 8,900 -600 Descending Miami Center
05:05PM 25.8317 -80.7739 113° Southeast 219 252 8,500 -1,140 Descending Miami Center
05:06PM 25.8078 -80.7317 122° Southeast 239 275 7,200 -2,100 Descending Miami Center
05:06PM 25.8019 -80.7083 106° East 219 252 6,400 -2,340 Descending Miami Center
05:07PM 25.7803 -80.6617 117° Southeast 231 266 4,600 -1,620 Descending Miami Center
05:08PM 25.7858 -80.6086 83° East 178 205 3,900 -660 Descending Miami Center
05:09PM 25.7872 -80.5556 88° East 174 200 3,400 -540 Descending Miami Center
05:10PM 25.7906 -80.5028 86° East 160 184 2,900 -480 Descending Miami Center
05:11PM 25.7919 -80.4519 88° East 164 189 2,500 -660 Descending Miami Center
05:12PM 25.7953 -80.3944 86° East 151 174 1,500 -840 Descending Miami Center
05:13PM 25.7961 -80.3622 88° East 134 154 900 -660 Descending Miami Center
05:14PM 25.7994 -80.3136 86° East 112 129 200 -600 Descending Miami Center
05:16PM 25.7954 -80.2901 20° North  Level Estimated
05:23PM 25.7954 -80.2901 20° North  Level Estimated